Time;durP1;ratioP1;P1;durP2;ratioP2;P2;SDS_P1;SDS_P2;PMS_P1;PMS_P2;Temp;Humidity;BMP_temperature;BMP_pressure;BME280_temperature;BME280_humidity;BME280_pressure;Samples;Min_cycle;Max_cycle;Signal;HPM_P1;HPM_P2
2023/11/24 00:02:10;;;;;;;12.15;9.25;;;;;;;-0.38;100.00;96983.19;1225692;75;2921572;-64
2023/11/24 00:04:43;;;;;;;15.90;12.25;;;;;;;-0.30;100.00;96973.78;1225814;67;2918262;-64
2023/11/24 00:07:17;;;;;;;12.60;9.75;;;;;;;-0.10;100.00;96971.75;1225012;75;2920224;-64
2023/11/24 00:09:50;;;;;;;11.05;9.00;;;;;;;-0.05;100.00;96979.34;1225774;75;2916235;-68
2023/11/24 00:12:25;;;;;;;12.25;9.40;;;;;;;-0.22;100.00;96964.34;1225924;75;2914010;-69
2023/11/24 00:14:58;;;;;;;12.30;9.25;;;;;;;-0.10;100.00;96958.28;1225731;75;2917975;-68
2023/11/24 00:17:30;;;;;;;11.70;9.10;;;;;;;-0.10;100.00;96960.97;1225021;67;2917060;-66
2023/11/24 00:20:03;;;;;;;10.05;8.25;;;;;;;-0.12;100.00;96936.47;1225073;75;2932308;-69
2023/11/24 00:22:36;;;;;;;11.40;8.65;;;;;;;-0.15;100.00;96928.47;1224906;75;2926316;-65
2023/11/24 00:25:09;;;;;;;12.60;9.30;;;;;;;-0.03;100.00;96925.09;1224889;75;2913660;-68
2023/11/24 00:27:46;;;;;;;10.35;8.05;;;;;;;0.08;100.00;96916.75;1224486;75;2924707;-68
2023/11/24 00:30:18;;;;;;;9.55;7.55;;;;;;;0.11;100.00;96921.28;1225561;75;2918765;-68
2023/11/24 00:32:51;;;;;;;8.60;6.65;;;;;;;0.10;100.00;96919.78;1225904;75;2919447;-70
2023/11/24 00:35:24;;;;;;;11.25;8.80;;;;;;;-0.19;100.00;96925.09;1225951;75;2917329;-69
2023/11/24 00:37:56;;;;;;;12.55;10.00;;;;;;;-0.11;100.00;96915.69;1224885;75;2932669;-65
2023/11/24 00:40:30;;;;;;;12.20;9.35;;;;;;;-0.04;100.00;96913.56;1226223;75;2916939;-66
2023/11/24 00:43:06;;;;;;;12.85;10.30;;;;;;;-0.10;100.00;96914.50;1225295;75;2928357;-64
2023/11/24 00:45:39;;;;;;;15.30;11.50;;;;;;;-0.23;100.00;96895.59;1225448;75;2914014;-68
2023/11/24 00:48:13;;;;;;;18.00;13.75;;;;;;;-0.26;100.00;96888.38;1225908;75;2916455;-69
2023/11/24 00:50:45;;;;;;;16.35;13.35;;;;;;;-0.14;100.00;96893.06;1224889;75;2916751;-68
2023/11/24 00:53:18;;;;;;;13.40;11.00;;;;;;;-0.01;100.00;96896.56;1225496;75;2926520;-66
2023/11/24 00:55:51;;;;;;;16.10;11.70;;;;;;;-0.12;100.00;96893.41;1225880;75;2916756;-69
2023/11/24 00:58:26;;;;;;;20.45;14.85;;;;;;;-0.19;100.00;96882.84;1225509;75;2919446;-69
2023/11/24 01:01:00;;;;;;;18.15;13.50;;;;;;;-0.01;100.00;96869.66;1225750;75;2921905;-65
2023/11/24 01:03:33;;;;;;;12.85;10.65;;;;;;;0.12;100.00;96879.72;1225435;75;2919587;-70
2023/11/24 01:06:07;;;;;;;19.40;15.25;;;;;;;-0.51;100.00;96857.47;1225029;75;2931010;-68
2023/11/24 01:08:39;;;;;;;18.10;14.30;;;;;;;-0.32;100.00;96853.16;1226048;75;2925254;-68
2023/11/24 01:11:12;;;;;;;17.85;13.65;;;;;;;-0.24;100.00;96849.13;1225649;75;2922819;-68
2023/11/24 01:13:47;;;;;;;15.75;11.65;;;;;;;-0.03;100.00;96855.13;1224940;75;2913170;-66
2023/11/24 01:16:20;;;;;;;15.55;12.25;;;;;;;-0.36;100.00;96855.22;1225600;75;2908340;-67
2023/11/24 01:18:52;;;;;;;16.10;12.40;;;;;;;-0.32;100.00;96845.09;1226109;75;2921544;-68
2023/11/24 01:21:25;;;;;;;16.60;12.90;;;;;;;-0.29;100.00;96843.50;1224920;75;2920882;-68
2023/11/24 01:24:02;;;;;;;15.40;11.30;;;;;;;-0.20;100.00;96842.91;1225610;75;2923208;-68
2023/11/24 01:26:34;;;;;;;14.55;10.40;;;;;;;-0.11;100.00;96835.72;1225173;75;2918049;-68
2023/11/24 01:29:11;;;;;;;12.95;9.30;;;;;;;-0.05;100.00;96847.50;1224294;75;2920965;-66
2023/11/24 01:31:44;;;;;;;10.00;7.85;;;;;;;0.01;100.00;96826.19;1225599;75;2919031;-65
2023/11/24 01:34:17;;;;;;;9.60;6.85;;;;;;;-0.04;100.00;96830.16;1224921;75;2921254;-66
2023/11/24 01:36:50;;;;;;;7.70;6.05;;;;;;;-0.11;100.00;96829.59;1225560;75;2920218;-64
2023/11/24 01:39:23;;;;;;;17.30;12.25;;;;;;;-0.55;100.00;96821.88;1225500;75;2913416;-68
2023/11/24 01:41:56;;;;;;;17.90;14.65;;;;;;;-0.66;100.00;96805.25;1224845;75;2913920;-65
2023/11/24 01:44:31;;;;;;;17.45;13.55;;;;;;;-0.54;100.00;96822.63;1224316;75;2929038;-65
2023/11/24 01:47:05;;;;;;;20.45;13.40;;;;;;;-0.37;100.00;96805.28;1225529;75;2915861;-69
2023/11/24 01:49:38;;;;;;;13.90;10.95;;;;;;;-0.22;100.00;96798.38;1225303;75;2938110;-66
2023/11/24 01:52:11;;;;;;;16.80;11.75;;;;;;;-0.37;100.00;96807.22;1226148;75;2916667;-68
2023/11/24 01:54:45;;;;;;;12.70;10.90;;;;;;;-0.41;100.00;96804.59;1225369;75;2913915;-66
2023/11/24 01:57:18;;;;;;;12.95;9.65;;;;;;;-0.31;100.00;96806.28;1224870;75;2918261;-66
2023/11/24 01:59:53;;;;;;;16.85;11.90;;;;;;;-0.49;100.00;96787.91;1226257;75;2911529;-71
2023/11/24 02:02:26;;;;;;;12.50;9.95;;;;;;;-0.25;100.00;96791.13;1225090;75;2917317;-69
2023/11/24 02:04:59;;;;;;;15.40;12.00;;;;;;;-0.70;100.00;96789.22;1224943;75;2919958;-61
2023/11/24 02:07:33;;;;;;;19.90;15.15;;;;;;;-0.73;100.00;96767.78;1224364;75;2917408;-69
2023/11/24 02:10:07;;;;;;;16.95;13.95;;;;;;;-0.61;100.00;96761.72;1224336;75;2921399;-69
2023/11/24 02:12:40;;;;;;;23.45;17.70;;;;;;;-0.95;100.00;96765.63;1226012;75;2920558;-66
2023/11/24 02:15:17;;;;;;;22.05;16.85;;;;;;;-0.95;100.00;96748.75;1225277;75;2914373;-65
2023/11/24 02:17:51;;;;;;;19.45;14.85;;;;;;;-0.78;100.00;96747.56;1225151;75;2914245;-65
2023/11/24 02:20:26;;;;;;;19.50;14.95;;;;;;;-0.83;100.00;96761.50;1225259;75;2916313;-62
2023/11/24 02:23:02;;;;;;;13.90;11.30;;;;;;;-0.54;100.00;96760.78;1225364;75;2912691;-64
2023/11/24 02:25:34;;;;;;;14.65;11.55;;;;;;;-0.59;100.00;96747.88;1223841;75;2922870;-67
2023/11/24 02:28:07;;;;;;;23.20;18.00;;;;;;;-1.15;100.00;96746.91;1224297;75;2922755;-67
2023/11/24 02:30:40;;;;;;;22.00;17.30;;;;;;;-0.93;100.00;96725.66;1224729;75;2919552;-68
2023/11/24 02:33:13;;;;;;;18.85;14.55;;;;;;;-0.72;100.00;96728.97;1224994;75;2917985;-71
2023/11/24 02:35:46;;;;;;;16.10;12.75;;;;;;;-0.73;100.00;96730.91;1224537;75;2919815;-67
2023/11/24 02:38:21;;;;;;;14.05;10.70;;;;;;;-0.72;100.00;96735.13;1225016;75;2917077;-67
2023/11/24 02:40:54;;;;;;;18.00;13.55;;;;;;;-0.90;100.00;96730.19;1225244;75;2927122;-68
2023/11/24 02:43:27;;;;;;;19.80;16.20;;;;;;;-1.19;100.00;96727.44;1225640;75;2920326;-68
2023/11/24 02:46:00;;;;;;;17.50;13.35;;;;;;;-0.94;100.00;96718.00;1225132;75;2918153;-64
2023/11/24 02:48:32;;;;;;;18.10;15.15;;;;;;;-1.07;100.00;96712.56;1225618;75;2914859;-64
2023/11/24 02:51:07;;;;;;;19.60;15.55;;;;;;;-1.11;100.00;96709.22;1224563;75;2918441;-64
2023/11/24 02:53:44;;;;;;;23.90;17.50;;;;;;;-1.38;100.00;96729.03;1224977;75;2916188;-63
2023/11/24 02:56:17;;;;;;;23.35;17.10;;;;;;;-0.96;100.00;96723.81;1224708;75;2925525;-66
2023/11/24 02:58:50;;;;;;;18.40;14.30;;;;;;;-0.96;100.00;96718.44;1224231;75;2918579;-66
2023/11/24 03:01:22;;;;;;;15.80;12.00;;;;;;;-0.89;100.00;96710.22;1225332;75;2915866;-66
2023/11/24 03:03:55;;;;;;;13.05;9.85;;;;;;;-0.91;100.00;96715.25;1224298;75;2918910;-67
2023/11/24 06:07:35;;;;;;;18.70;14.30;;;;;;;-0.97;100.00;96493.22;1250737;75;2809792;-62
2023/11/24 06:10:09;;;;;;;23.95;17.85;;;;;;;-0.83;100.00;96481.31;1224691;75;2926152;-61
2023/11/24 06:12:42;;;;;;;22.40;15.60;;;;;;;-0.68;100.00;96525.41;1225358;75;2925172;-61
2023/11/24 06:15:15;;;;;;;19.10;14.00;;;;;;;-0.48;100.00;96509.06;1225819;75;2924318;-63
2023/11/24 06:17:48;;;;;;;19.45;15.10;;;;;;;-0.36;100.00;96481.44;1225448;75;2922885;-63
2023/11/24 06:20:21;;;;;;;15.55;12.50;;;;;;;-0.23;100.00;96502.94;1226021;75;2923429;-63
2023/11/24 06:22:56;;;;;;;15.90;12.65;;;;;;;-0.17;100.00;96511.97;1224723;75;2922809;-64
2023/11/24 06:25:29;;;;;;;19.20;14.60;;;;;;;-0.12;100.00;96506.06;1226318;75;2939277;-61
2023/11/24 06:28:01;;;;;;;21.90;17.75;;;;;;;-0.15;100.00;96474.63;1225559;75;2929358;-64
2023/11/24 06:30:34;;;;;;;20.50;16.80;;;;;;;0.01;100.00;96497.22;1225024;75;2924187;-62
2023/11/24 06:33:07;;;;;;;21.00;16.80;;;;;;;0.07;100.00;96498.16;1225002;75;2922328;-64
2023/11/24 06:35:39;;;;;;;22.40;16.65;;;;;;;0.17;100.00;96489.00;1225711;75;2927326;-62
2023/11/24 06:38:16;;;;;;;17.80;14.75;;;;;;;0.25;100.00;96486.81;1225537;75;2925964;-62
2023/11/24 06:40:48;;;;;;;19.10;14.15;;;;;;;0.24;100.00;96477.22;1225799;75;2924448;-64
2023/11/24 06:43:21;;;;;;;22.45;15.60;;;;;;;0.42;100.00;96477.41;1225759;75;2924023;-61
2023/11/24 06:45:54;;;;;;;18.15;14.00;;;;;;;0.37;100.00;96492.16;1225638;75;2922198;-63
2023/11/24 06:48:27;;;;;;;19.70;14.90;;;;;;;0.34;100.00;96476.16;1224329;75;2921261;-63
2023/11/24 06:50:59;;;;;;;16.30;12.00;;;;;;;0.50;100.00;96480.59;1222779;75;2967385;-60
2023/11/24 06:53:34;;;;;;;16.00;12.70;;;;;;;0.56;100.00;96482.28;1225478;75;2925975;-61
2023/11/24 06:56:08;;;;;;;18.35;13.40;;;;;;;0.46;100.00;96483.41;1225379;75;2924500;-59
2023/11/24 06:58:41;;;;;;;20.25;15.95;;;;;;;0.34;100.00;96494.97;1225977;75;2922034;-66
2023/11/24 07:01:14;;;;;;;26.30;20.35;;;;;;;0.17;100.00;96494.38;1224054;75;2926756;-63
2023/11/24 07:03:47;;;;;;;22.65;18.30;;;;;;;0.29;100.00;96500.91;1225011;75;2926127;-63
2023/11/24 07:06:20;;;;;;;24.40;17.25;;;;;;;0.48;100.00;96472.19;1225432;75;2935529;-63
2023/11/24 07:08:55;;;;;;;20.60;15.90;;;;;;;0.73;100.00;96482.84;1225857;75;2916177;-63
2023/11/24 07:11:28;;;;;;;20.15;15.00;;;;;;;0.70;100.00;96481.06;1224979;75;2948027;-63
2023/11/24 07:14:00;;;;;;;19.45;15.25;;;;;;;0.71;100.00;96497.97;1226327;75;2925898;-62
2023/11/24 07:16:33;;;;;;;21.00;16.10;;;;;;;0.58;100.00;96501.47;1225428;75;2932953;-61
2023/11/24 07:19:05;;;;;;;24.55;18.25;;;;;;;0.35;100.00;96512.63;1223379;75;2927848;-65
2023/11/24 07:21:38;;;;;;;25.50;18.25;;;;;;;0.72;100.00;96504.84;1223996;75;2928349;-64
2023/11/24 07:24:14;;;;;;;28.50;17.15;;;;;;;0.63;100.00;96500.91;1224566;75;2917733;-64
2023/11/24 07:26:46;;;;;;;23.35;16.55;;;;;;;0.74;100.00;96513.97;1223389;75;2929083;-63
2023/11/24 07:29:21;;;;;;;23.15;17.05;;;;;;;0.91;100.00;96508.41;1224630;75;2921661;-62
2023/11/24 07:31:54;;;;;;;20.80;15.80;;;;;;;1.01;100.00;96509.97;1224680;75;2926885;-61
2023/11/24 07:34:26;;;;;;;25.95;18.70;;;;;;;0.59;100.00;96511.03;1223946;75;2939605;-63
2023/11/24 07:37:00;;;;;;;58.95;33.65;;;;;;;1.02;100.00;96500.72;1224852;75;2924588;-65
2023/11/24 07:39:36;;;;;;;45.35;26.75;;;;;;;1.74;100.00;96500.75;1223740;75;2926165;-60
2023/11/24 07:42:09;;;;;;;33.85;20.95;;;;;;;1.51;100.00;96504.69;1224908;75;2925895;-63
2023/11/24 07:44:42;;;;;;;26.80;18.65;;;;;;;2.02;100.00;96504.25;1224106;75;2921253;-65
2023/11/24 07:47:18;;;;;;;30.15;19.35;;;;;;;1.89;100.00;96499.00;1223696;75;2931893;-64
2023/11/24 07:49:51;;;;;;;27.50;18.60;;;;;;;1.82;100.00;96486.53;1225047;75;2924332;-62
2023/11/24 07:52:26;;;;;;;26.90;19.20;;;;;;;2.58;100.00;96478.09;1223657;83;2922177;-60
2023/11/24 07:55:01;;;;;;;26.35;16.25;;;;;;;3.81;100.00;96475.63;1223980;75;2924961;-62
2023/11/24 07:57:35;;;;;;;22.75;15.60;;;;;;;4.57;100.00;96483.59;1222714;75;2924092;-62
2023/11/24 08:00:12;;;;;;;17.50;13.25;;;;;;;5.32;98.31;96478.97;1222643;75;2923099;-61
2023/11/24 08:02:45;;;;;;;15.90;11.30;;;;;;;5.66;91.14;96472.09;1224259;75;2926131;-60
2023/11/24 08:05:18;;;;;;;16.00;11.45;;;;;;;5.41;92.46;96473.44;1223865;75;2926353;-63
2023/11/24 08:07:50;;;;;;;20.45;14.50;;;;;;;4.12;100.00;96469.16;1222970;75;2989029;-63
2023/11/24 08:10:26;;;;;;;21.70;14.10;;;;;;;4.27;100.00;96456.41;1224185;75;2923415;-61
2023/11/24 08:12:59;;;;;;;19.50;13.60;;;;;;;3.99;100.00;96449.66;1224589;75;2939205;-66
2023/11/24 08:15:32;;;;;;;20.30;13.15;;;;;;;4.43;100.00;96449.81;1223728;75;2935051;-63
2023/11/24 08:18:04;;;;;;;20.65;13.75;;;;;;;4.09;100.00;96432.16;1222733;75;2934652;-61
2023/11/24 08:20:37;;;;;;;21.50;13.10;;;;;;;4.43;100.00;96421.97;1224029;75;2924417;-64
2023/11/24 08:23:10;;;;;;;18.60;11.95;;;;;;;5.35;100.00;96423.75;1224684;75;2920609;-62
2023/11/24 08:25:46;;;;;;;17.15;12.10;;;;;;;4.94;100.00;96401.16;1224381;75;2935043;-62
2023/11/24 08:28:19;;;;;;;16.90;11.50;;;;;;;6.23;95.75;96392.09;1224582;75;2929384;-65
2023/11/24 08:30:54;;;;;;;16.35;11.80;;;;;;;6.30;96.15;96385.47;1221815;75;2928261;-61
2023/11/24 08:33:28;;;;;;;17.80;12.65;;;;;;;6.19;96.41;96365.13;1223634;75;2945772;-64
2023/11/24 08:36:00;;;;;;;12.00;9.65;;;;;;;7.08;93.55;96363.72;1225892;75;2918395;-62
2023/11/24 08:38:33;;;;;;;17.85;11.35;;;;;;;6.85;90.33;96364.75;1224382;75;2917741;-60
2023/11/24 08:41:13;;;;;;;15.60;11.05;;;;;;;6.76;100.00;96357.53;1224188;75;2921984;-62
2023/11/24 08:43:47;;;;;;;17.80;11.40;;;;;;;6.68;97.92;96345.56;1223820;75;2924615;-63
2023/11/24 08:46:21;;;;;;;17.80;11.35;;;;;;;7.06;96.94;96338.22;1222487;75;2920883;-62
2023/11/24 08:48:54;;;;;;;15.70;10.65;;;;;;;7.77;93.90;96322.00;1223142;75;2921068;-62
2023/11/24 08:51:27;;;;;;;14.80;10.00;;;;;;;8.20;90.94;96327.34;1223204;75;2937812;-64
2023/11/24 08:53:59;;;;;;;13.65;8.80;;;;;;;9.02;82.16;96323.72;1224036;75;2923580;-59
2023/11/24 08:56:35;;;;;;;16.20;10.50;;;;;;;9.39;83.23;96315.97;1223980;75;2924624;-61
2023/11/24 08:59:09;;;;;;;12.70;9.10;;;;;;;10.76;76.11;96305.88;1222360;75;2941411;-63
2023/11/24 09:01:42;;;;;;;13.05;8.30;;;;;;;11.56;74.15;96314.84;1224579;75;2921804;-62
2023/11/24 09:04:14;;;;;;;10.15;7.20;;;;;;;11.33;76.01;96306.88;1223676;75;2934436;-62
2023/11/24 09:06:47;;;;;;;9.80;6.40;;;;;;;12.05;73.47;96312.06;1223633;75;2918651;-63
2023/11/24 09:09:19;;;;;;;8.80;5.90;;;;;;;11.70;74.00;96314.44;1223575;75;2921159;-60
2023/11/24 09:11:55;;;;;;;7.85;5.80;;;;;;;12.10;71.78;96314.00;1224341;75;2921236;-63
2023/11/24 09:14:28;;;;;;;8.15;5.40;;;;;;;11.79;75.09;96320.84;1222419;75;2919623;-64
2023/11/24 09:17:01;;;;;;;16.00;8.10;;;;;;;10.44;79.54;96307.09;1223795;75;2918022;-63
2023/11/24 09:19:34;;;;;;;8.15;6.55;;;;;;;10.99;78.58;96314.66;1223898;75;2922629;-62
2023/11/24 09:22:10;;;;;;;9.60;6.50;;;;;;;10.72;83.71;96311.63;1223988;75;2922027;-62
2023/11/24 09:24:43;;;;;;;11.40;8.50;;;;;;;9.78;86.64;96315.13;1222914;75;2922539;-62
2023/11/24 09:27:21;;;;;;;15.20;9.45;;;;;;;9.59;85.82;96317.66;1223304;75;2918548;-62
2023/11/24 09:29:54;;;;;;;13.30;8.30;;;;;;;9.80;85.10;96322.81;1224236;75;2924183;-65
2023/11/24 09:32:26;;;;;;;12.95;9.00;;;;;;;10.13;83.59;96316.47;1223732;75;2926641;-61
2023/11/24 09:34:59;;;;;;;16.50;11.70;;;;;;;10.16;86.09;96303.75;1223347;75;2932146;-65
2023/11/24 09:37:33;;;;;;;13.20;9.00;;;;;;;9.69;96.31;96301.75;1222316;75;3012951;-62
2023/11/24 09:40:12;;;;;;;11.40;7.40;;;;;;;9.98;96.86;96289.44;1224293;75;2924430;-60
2023/11/24 09:42:48;;;;;;;7.95;6.35;;;;;;;10.19;94.99;96292.53;1224943;75;2926324;-63
2023/11/24 09:45:26;;;;;;;7.35;5.10;;;;;;;9.79;94.83;96291.28;1225442;75;2921793;-64
2023/11/24 09:47:59;;;;;;;8.50;5.00;;;;;;;9.58;96.49;96277.19;1224199;75;2923504;-60
2023/11/24 09:50:32;;;;;;;5.15;4.40;;;;;;;10.01;92.18;96274.75;1224714;75;2959053;-64
2023/11/24 09:53:05;;;;;;;5.85;4.15;;;;;;;10.29;91.05;96262.19;1224544;75;2928918;-62
2023/11/24 09:55:40;;;;;;;7.95;3.85;;;;;;;11.09;81.70;96272.75;1223924;75;2924951;-65
2023/11/24 09:58:20;;;;;;;6.00;4.00;;;;;;;11.19;80.39;96272.41;1224065;75;2925296;-63
2023/11/24 10:00:54;;;;;;;4.90;3.60;;;;;;;11.05;81.57;96275.00;1224843;75;2919620;-62
2023/11/24 10:03:28;;;;;;;5.30;4.00;;;;;;;10.80;82.21;96268.00;1222976;75;2919615;-60
2023/11/24 10:06:02;;;;;;;6.60;4.35;;;;;;;11.23;82.95;96264.63;1224520;75;2920657;-66
2023/11/24 10:08:35;;;;;;;4.65;3.40;;;;;;;11.28;81.88;96261.84;1223856;75;2926616;-62
2023/11/24 10:11:14;;;;;;;5.95;2.95;;;;;;;11.44;78.25;96245.72;1223990;75;2920193;-62
2023/11/24 10:13:50;;;;;;;4.15;3.15;;;;;;;10.64;79.46;96237.53;1224357;75;2927134;-65
2023/11/24 10:16:22;;;;;;;5.85;2.85;;;;;;;11.02;79.20;96242.44;1224344;75;2919430;-64
2023/11/24 10:18:56;;;;;;;3.05;2.25;;;;;;;11.18;76.96;96222.34;1223917;75;2929995;-65
2023/11/24 10:21:35;;;;;;;4.45;2.85;;;;;;;10.57;78.20;96221.69;1225041;75;2927338;-66
2023/11/24 10:24:10;;;;;;;5.90;4.10;;;;;;;10.87;79.13;96210.72;1224200;75;2919835;-63
2023/11/24 10:26:45;;;;;;;7.10;4.75;;;;;;;10.45;80.22;96201.16;1224808;75;2928917;-62
2023/11/24 10:29:24;;;;;;;6.95;4.05;;;;;;;10.92;78.90;96184.53;1223741;75;2923743;-64
2023/11/24 10:31:56;;;;;;;6.80;4.10;;;;;;;11.18;77.93;96183.25;1223113;75;2928587;-61
2023/11/24 10:34:29;;;;;;;5.10;3.10;;;;;;;11.13;76.93;96187.53;1224311;75;2919673;-66
2023/11/24 10:37:05;;;;;;;5.40;3.60;;;;;;;11.18;75.29;96178.50;1224619;75;2921851;-61
2023/11/24 10:39:39;;;;;;;3.75;2.60;;;;;;;11.17;73.79;96171.56;1223681;75;2939462;-63
2023/11/24 10:42:15;;;;;;;0.40;0.40;;;;;;;11.01;68.19;96165.00;1223462;75;2919894;-62
2023/11/24 10:44:59;;;;;;;0.90;0.40;;;;;;;10.93;68.16;96166.84;1222344;75;2931253;-61
2023/11/24 10:47:38;;;;;;;0.35;0.30;;;;;;;11.01;67.44;96172.50;1221687;75;2934396;-64
2023/11/24 10:50:16;;;;;;;1.00;0.40;;;;;;;10.87;68.16;96177.09;1224628;75;2928792;-64
2023/11/24 10:52:59;;;;;;;3.00;0.50;;;;;;;11.17;68.23;96171.56;1223502;75;2936923;-68
2023/11/24 10:55:34;;;;;;;2.75;0.90;;;;;;;11.23;67.97;96171.50;1224607;75;2919212;-65
2023/11/24 10:58:09;;;;;;;2.20;1.30;;;;;;;10.96;67.82;96176.03;1223949;75;2930938;-67
2023/11/24 11:00:44;;;;;;;2.20;0.55;;;;;;;11.00;68.60;96163.53;1225241;75;2920031;-62
2023/11/24 11:03:17;;;;;;;3.40;0.60;;;;;;;10.99;68.16;96172.25;1224131;75;2923243;-60
2023/11/24 11:06:04;;;;;;;0.40;0.40;;;;;;;10.99;67.66;96164.81;1225005;75;2929492;-67
2023/11/24 11:08:42;;;;;;;0.60;0.40;;;;;;;11.30;68.43;96157.22;1223276;75;2928983;-62
2023/11/24 11:11:45;;;;;;;;;;;;;;;11.26;68.17;96152.03;1225854;75;2927251;-60
2023/11/24 11:14:21;;;;;;;0.30;0.30;;;;;;;11.28;67.48;96135.06;1223530;75;2926623;-64
2023/11/24 11:16:59;;;;;;;0.20;0.20;;;;;;;11.57;66.44;96127.97;1224561;75;2924414;-61
2023/11/24 11:19:35;;;;;;;0.30;0.30;;;;;;;11.64;65.77;96112.91;1224322;75;2922499;-64
2023/11/24 11:22:08;;;;;;;0.25;0.25;;;;;;;11.82;65.83;96098.44;1223295;75;2926781;-66
2023/11/24 11:24:40;;;;;;;0.30;0.30;;;;;;;12.64;63.26;96100.84;1224965;75;2930958;-64
2023/11/24 11:27:29;;;;;;;0.95;0.70;;;;;;;12.25;63.10;96118.75;1224900;75;2923060;-62
2023/11/24 11:30:01;;;;;;;0.60;0.60;;;;;;;12.68;63.30;96120.50;1225690;75;2922484;-63
2023/11/24 11:32:38;;;;;;;0.75;0.60;;;;;;;12.61;64.18;96129.38;1222985;75;2932476;-65
2023/11/24 11:35:12;;;;;;;1.85;1.00;;;;;;;11.71;65.20;96158.91;1223592;75;2921818;-64
2023/11/24 11:37:46;;;;;;;3.25;2.40;;;;;;;10.98;69.03;96160.56;1223891;75;2934054;-64
2023/11/24 11:40:22;;;;;;;5.05;3.15;;;;;;;10.13;71.69;96162.59;1223499;75;2927132;-61
2023/11/24 11:42:58;;;;;;;5.00;3.40;;;;;;;9.81;73.51;96141.19;1224563;75;2923849;-63
2023/11/24 11:45:34;;;;;;;3.90;2.90;;;;;;;9.90;74.10;96101.88;1224756;75;2920028;-65
2023/11/24 11:48:10;;;;;;;4.95;3.05;;;;;;;9.86;74.82;96113.09;1224154;75;2924772;-62
2023/11/24 11:50:58;;;;;;;3.55;2.80;;;;;;;10.34;74.72;96117.19;1224108;75;2931064;-64
2023/11/24 11:53:33;;;;;;;6.50;3.70;;;;;;;8.92;79.34;96119.31;1223962;75;2922589;-62
2023/11/24 11:56:10;;;;;;;5.80;3.95;;;;;;;9.49;77.43;96122.50;1223256;75;2926344;-65
2023/11/24 11:58:45;;;;;;;5.80;3.80;;;;;;;9.07;81.50;96129.19;1220360;75;3036313;-65
2023/11/24 12:01:18;;;;;;;5.30;3.45;;;;;;;9.20;81.66;96129.38;1222667;75;2925814;-66
2023/11/24 12:03:54;;;;;;;4.60;3.55;;;;;;;9.12;82.56;96142.06;1223070;75;2917340;-63
2023/11/24 12:06:27;;;;;;;5.30;3.45;;;;;;;9.00;85.01;96114.06;1224609;75;2919534;-66
2023/11/24 12:09:00;;;;;;;4.10;3.15;;;;;;;9.12;84.87;96142.06;1224824;75;2919061;-64
2023/11/24 12:11:32;;;;;;;6.80;3.80;;;;;;;8.86;87.49;96129.50;1224325;75;2926600;-66
2023/11/24 12:14:07;;;;;;;5.70;3.20;;;;;;;9.02;86.94;96119.00;1224510;75;2928641;-62
2023/11/24 12:16:40;;;;;;;5.05;3.60;;;;;;;8.84;89.91;96131.97;1225241;75;2919566;-64
2023/11/24 12:19:15;;;;;;;4.20;3.10;;;;;;;8.86;90.03;96137.69;1225079;75;2916480;-68
2023/11/24 12:21:48;;;;;;;4.20;2.95;;;;;;;8.76;92.12;96120.13;1224559;75;2928994;-64
2023/11/24 12:24:23;;;;;;;4.80;3.40;;;;;;;8.37;96.61;96095.63;1224979;75;2914181;-63
2023/11/24 12:26:58;;;;;;;4.90;3.30;;;;;;;8.51;94.81;96117.22;1224489;75;2925730;-67
2023/11/24 12:29:31;;;;;;;4.40;3.15;;;;;;;8.48;95.60;96126.38;1226214;75;2926725;-63
2023/11/24 12:32:09;;;;;;;6.20;3.35;;;;;;;8.46;95.91;96101.56;1225023;75;2923913;-62
2023/11/24 12:34:47;;;;;;;4.05;2.90;;;;;;;8.55;95.74;96124.38;1225039;75;2913634;-64
2023/11/24 12:37:20;;;;;;;6.00;3.40;;;;;;;8.32;98.27;96138.00;1225451;75;2924431;-62
2023/11/24 12:39:52;;;;;;;5.20;3.45;;;;;;;8.22;100.00;96125.88;1225315;75;2920524;-62
2023/11/24 12:42:25;;;;;;;4.30;2.95;;;;;;;8.40;100.00;96117.22;1224831;75;2919874;-62
2023/11/24 12:44:58;;;;;;;3.60;2.45;;;;;;;8.82;96.51;96115.38;1224532;75;2910770;-64
2023/11/24 12:47:31;;;;;;;7.25;4.20;;;;;;;8.37;100.00;96118.19;1225684;75;2916131;-65
2023/11/24 12:50:11;;;;;;;4.60;3.75;;;;;;;8.90;97.64;96112.88;1223766;75;2934624;-63
2023/11/24 12:52:46;;;;;;;3.95;3.20;;;;;;;9.10;95.72;96122.72;1225182;75;2922741;-65
2023/11/24 12:55:21;;;;;;;4.70;2.90;;;;;;;9.11;95.61;96126.91;1225239;75;2918607;-64
2023/11/24 12:57:54;;;;;;;3.25;2.30;;;;;;;8.87;96.12;96125.50;1224770;75;2924694;-64
2023/11/24 13:00:28;;;;;;;2.80;2.10;;;;;;;8.73;99.07;96119.13;1224005;75;2914883;-63
2023/11/24 13:03:01;;;;;;;3.05;2.10;;;;;;;8.73;100.00;96110.19;1222230;75;2919075;-63
2023/11/24 13:05:38;;;;;;;3.05;2.25;;;;;;;8.94;98.50;96096.97;1224953;75;2921493;-66
2023/11/24 13:08:10;;;;;;;5.15;2.10;;;;;;;9.19;97.12;96103.31;1225795;75;2922393;-63
2023/11/24 13:10:45;;;;;;;1.60;1.40;;;;;;;9.27;95.12;96115.19;1226353;75;2914254;-62
2023/11/24 13:13:18;;;;;;;1.70;1.20;;;;;;;9.18;97.10;96115.47;1226413;75;2910710;-63
2023/11/24 13:15:51;;;;;;;2.00;1.35;;;;;;;9.00;98.51;96119.53;1224952;75;2923025;-63
2023/11/24 13:18:23;;;;;;;2.10;1.30;;;;;;;9.25;96.14;96120.41;1225290;75;2918128;-62
2023/11/24 13:20:59;;;;;;;1.90;1.30;;;;;;;9.25;96.64;96111.47;1222972;75;2915087;-63
2023/11/24 13:23:32;;;;;;;1.10;1.00;;;;;;;9.29;96.29;96111.97;1224693;75;2914350;-65
2023/11/24 13:26:05;;;;;;;2.15;1.60;;;;;;;8.48;100.00;96125.63;1225336;75;2917505;-64
2023/11/24 13:28:37;;;;;;;2.85;1.75;;;;;;;8.24;100.00;96120.69;1224294;75;2927117;-61
2023/11/24 13:31:10;;;;;;;3.75;2.00;;;;;;;8.32;100.00;96129.81;1225540;75;2922722;-63
2023/11/24 13:33:43;;;;;;;3.00;1.75;;;;;;;8.42;100.00;96120.19;1225239;75;2923945;-62
2023/11/24 13:36:18;;;;;;;2.35;1.60;;;;;;;8.73;100.00;96115.63;1225140;75;2918150;-65
2023/11/24 13:38:54;;;;;;;3.10;2.00;;;;;;;8.10;100.00;96133.31;1223858;67;2924682;-64
2023/11/24 13:41:27;;;;;;;4.80;2.85;;;;;;;7.99;100.00;96138.78;1224056;75;2920099;-62
2023/11/24 13:44:00;;;;;;;3.85;2.25;;;;;;;7.84;100.00;96149.91;1225553;75;2912975;-61
2023/11/24 13:46:34;;;;;;;2.80;2.20;;;;;;;8.23;100.00;96149.94;1225163;75;2908188;-63
2023/11/24 13:49:06;;;;;;;2.65;1.70;;;;;;;8.16;100.00;96146.97;1224502;75;2913858;-64
2023/11/24 13:51:43;;;;;;;2.65;1.90;;;;;;;8.39;100.00;96131.31;1225261;75;2918824;-62
2023/11/24 13:54:16;;;;;;;1.70;1.30;;;;;;;8.51;100.00;96141.75;1223751;75;2924218;-63
2023/11/24 13:56:55;;;;;;;1.75;1.40;;;;;;;8.29;100.00;96137.03;1224179;75;2920145;-63
2023/11/24 13:59:29;;;;;;;2.65;1.80;;;;;;;8.06;100.00;96152.66;1223506;75;2942738;-65
2023/11/24 14:02:03;;;;;;;3.75;2.20;;;;;;;8.35;100.00;96145.22;1225181;75;2931749;-65
2023/11/24 14:04:37;;;;;;;3.50;2.15;;;;;;;8.20;100.00;96150.94;1223947;75;2919227;-62
2023/11/24 14:07:19;;;;;;;2.55;1.80;;;;;;;8.05;100.00;96140.25;1224920;75;2923299;-63
2023/11/24 14:09:52;;;;;;;2.15;1.70;;;;;;;7.93;100.00;96152.38;1223644;75;2918538;-63
2023/11/24 14:12:24;;;;;;;3.50;1.95;;;;;;;7.75;100.00;96137.28;1223790;75;2971709;-63
2023/11/24 14:15:00;;;;;;;6.50;3.55;;;;;;;7.44;100.00;96138.94;1223453;75;2927960;-63
2023/11/24 14:17:35;;;;;;;6.55;3.80;;;;;;;7.08;100.00;96146.03;1223705;75;2930267;-62
2023/11/24 14:20:10;;;;;;;6.90;3.80;;;;;;;7.01;100.00;96146.47;1223867;67;2926058;-62
2023/11/24 14:22:46;;;;;;;9.15;3.50;;;;;;;6.98;100.00;96158.34;1224483;75;2924416;-63
2023/11/24 14:25:18;;;;;;;5.55;3.15;;;;;;;7.04;100.00;96142.78;1224005;75;2920091;-63
2023/11/24 14:27:51;;;;;;;5.25;2.80;;;;;;;7.24;100.00;96128.28;1224812;75;2923207;-66
2023/11/24 14:30:23;;;;;;;4.85;2.70;;;;;;;7.24;100.00;96129.00;1223141;75;2918000;-65
2023/11/24 14:32:57;;;;;;;6.55;3.30;;;;;;;7.00;100.00;96139.56;1223706;75;2921351;-64
2023/11/24 14:35:31;;;;;;;6.35;3.40;;;;;;;6.86;100.00;96154.09;1223572;75;2921466;-64
2023/11/24 14:38:07;;;;;;;5.40;3.45;;;;;;;6.91;100.00;96150.66;1223193;75;2925365;-63
2023/11/24 14:40:42;;;;;;;7.45;4.90;;;;;;;6.90;100.00;96160.03;1223263;75;2923674;-63
2023/11/24 14:43:14;;;;;;;4.90;3.25;;;;;;;7.04;100.00;96178.16;1223357;75;2924923;-64